createdAt,value
2022-08-26T00:01:53.148Z,19.54
2022-08-26T00:04:22.118Z,19.41
2022-08-26T00:06:49.242Z,19.54
2022-08-26T00:09:16.865Z,19.53
2022-08-26T00:11:44.883Z,19.49
2022-08-26T00:14:13.729Z,19.02
2022-08-26T00:16:47.627Z,19.49
2022-08-26T00:19:20.491Z,19.49
2022-08-26T00:21:49.615Z,19.52
2022-08-26T00:24:19.758Z,19.69
2022-08-26T00:26:47.034Z,19.58
2022-08-26T00:29:14.233Z,19.62
2022-08-26T00:31:42.260Z,19.45
2022-08-26T00:34:11.286Z,19.36
2022-08-26T00:36:39.735Z,19.22
2022-08-26T00:39:08.706Z,19.15
2022-08-26T00:41:39.174Z,19.14
2022-08-26T00:44:06.721Z,19.09
2022-08-26T00:46:37.063Z,19.05
2022-08-26T00:49:13.409Z,19.06
2022-08-26T00:51:47.919Z,19.03
2022-08-26T00:54:16.381Z,19.01
2022-08-26T00:57:05.547Z,18.93
2022-08-26T00:59:45.273Z,18.87
2022-08-26T01:02:20.144Z,18.53
2022-08-26T01:04:55.663Z,18.82
2022-08-26T01:07:26.143Z,18.83
2022-08-26T01:09:53.487Z,18.78
2022-08-26T01:12:22.154Z,18.76
2022-08-26T01:14:50.054Z,18.78
2022-08-26T01:17:18.331Z,18.54
2022-08-26T01:19:50.931Z,18.76
2022-08-26T01:22:28.223Z,18.66
2022-08-26T01:25:00.675Z,18.63
2022-08-26T01:27:32.961Z,18.68
2022-08-26T01:30:01.601Z,18.56
2022-08-26T01:32:31.371Z,18.57
2022-08-26T01:34:59.099Z,18.45
2022-08-26T01:37:29.273Z,18.48
2022-08-26T01:39:56.863Z,18.41
2022-08-26T01:42:25.840Z,18.57
2022-08-26T01:44:57.780Z,18.49
2022-08-26T01:47:27.826Z,18.39
2022-08-26T01:50:01.224Z,18.39
2022-08-26T01:52:33.205Z,18.61
2022-08-26T01:55:01.436Z,18.44
2022-08-26T01:57:29.271Z,18.36
2022-08-26T01:59:59.634Z,18.34
2022-08-26T02:02:27.412Z,18.34
2022-08-26T02:04:59.686Z,18.36
2022-08-26T02:07:28.039Z,18.23
2022-08-26T02:09:55.484Z,18.14
2022-08-26T02:12:23.051Z,18.12
2022-08-26T02:14:54.075Z,17.87
2022-08-26T02:17:26.163Z,17.77
2022-08-26T02:19:53.621Z,18.03
2022-08-26T02:22:24.517Z,18.09
2022-08-26T02:24:53.530Z,18.00
2022-08-26T02:27:32.457Z,17.90
2022-08-26T02:30:11.858Z,17.89
2022-08-26T02:32:40.224Z,17.88
2022-08-26T02:35:10.190Z,17.84
2022-08-26T02:37:37.499Z,17.80
2022-08-26T02:40:07.915Z,17.76
2022-08-26T02:42:35.930Z,17.56
2022-08-26T02:45:05.917Z,17.70
2022-08-26T02:47:34.482Z,17.46
2022-08-26T02:50:01.854Z,17.37
2022-08-26T02:52:29.027Z,17.69
2022-08-26T02:54:56.089Z,17.70
2022-08-26T02:57:23.329Z,17.71
2022-08-26T02:59:51.386Z,17.61
2022-08-26T03:02:18.480Z,17.41
2022-08-26T03:04:57.694Z,17.87
2022-08-26T03:07:29.812Z,17.83
2022-08-26T03:09:57.999Z,17.77
2022-08-26T03:12:25.806Z,17.68
2022-08-26T03:14:53.112Z,17.60
2022-08-26T03:17:21.064Z,17.52
2022-08-26T03:19:51.751Z,17.60
2022-08-26T03:22:21.484Z,17.41
2022-08-26T03:24:49.937Z,17.44
2022-08-26T03:27:17.261Z,17.67
2022-08-26T03:30:03.217Z,17.50
2022-08-26T03:32:30.589Z,17.43
2022-08-26T03:34:57.843Z,17.32
2022-08-26T03:37:25.353Z,17.22
2022-08-26T03:39:53.009Z,17.42
2022-08-26T03:42:22.080Z,17.45
2022-08-26T03:44:49.456Z,17.39
2022-08-26T03:47:17.123Z,17.30
2022-08-26T03:49:44.352Z,17.15
2022-08-26T03:52:12.253Z,17.35
2022-08-26T03:54:41.092Z,17.35
2022-08-26T03:57:10.630Z,17.23
2022-08-26T03:59:37.670Z,17.21
2022-08-26T04:02:11.665Z,17.12
2022-08-26T04:04:39.730Z,17.10
2022-08-26T04:07:07.345Z,17.24
2022-08-26T04:09:35.351Z,17.18
2022-08-26T04:12:03.561Z,17.07
2022-08-26T04:14:32.089Z,17.05
2022-08-26T04:16:59.471Z,17.03
2022-08-26T04:19:26.661Z,16.98
2022-08-26T04:21:54.466Z,17.03
2022-08-26T04:24:23.765Z,16.96
2022-08-26T04:26:51.205Z,17.13
2022-08-26T04:29:23.919Z,17.12
2022-08-26T04:31:55.233Z,16.92
2022-08-26T04:34:24.537Z,16.82
2022-08-26T04:36:54.629Z,16.94
2022-08-26T04:39:22.839Z,16.94
2022-08-26T04:41:50.761Z,17.05
2022-08-26T04:44:18.574Z,16.89
2022-08-26T04:46:45.731Z,16.92
2022-08-26T04:49:13.913Z,16.63
2022-08-26T04:51:40.949Z,16.84
2022-08-26T04:54:08.581Z,16.85
2022-08-26T04:56:41.320Z,16.79
2022-08-26T04:59:17.187Z,16.93
2022-08-26T05:01:48.606Z,16.82
2022-08-26T05:04:18.921Z,17.03
2022-08-26T05:06:50.223Z,16.91
2022-08-26T05:09:20.899Z,16.50
2022-08-26T05:11:52.377Z,16.65
2022-08-26T05:14:23.057Z,16.98
2022-08-26T05:16:50.490Z,16.96
2022-08-26T05:19:19.252Z,17.05
2022-08-26T05:21:48.465Z,16.83
2022-08-26T05:24:16.087Z,16.70
2022-08-26T05:26:44.638Z,17.05
2022-08-26T05:29:12.790Z,17.10
2022-08-26T05:31:40.017Z,17.15
2022-08-26T05:34:07.462Z,17.47
2022-08-26T05:36:36.229Z,17.51
2022-08-26T05:39:05.900Z,17.51
2022-08-26T05:41:38.545Z,17.62
2022-08-26T05:44:09.337Z,17.51
2022-08-26T05:46:37.971Z,17.55
2022-08-26T05:49:12.827Z,17.88
2022-08-26T05:51:42.188Z,17.92
2022-08-26T05:54:10.337Z,17.58
2022-08-26T05:56:38.765Z,17.98
2022-08-26T05:59:06.409Z,18.18
2022-08-26T06:01:42.424Z,18.37
2022-08-26T06:04:10.024Z,18.41
2022-08-26T06:06:41.244Z,18.36
2022-08-26T06:09:11.154Z,18.58
2022-08-26T06:11:39.625Z,18.69
2022-08-26T06:14:08.237Z,18.85
2022-08-26T06:16:38.591Z,18.87
2022-08-26T06:19:10.857Z,18.90
2022-08-26T06:21:41.435Z,18.93
2022-08-26T06:24:30.499Z,18.91
2022-08-26T06:27:04.172Z,18.99
2022-08-26T06:29:33.501Z,18.89
2022-08-26T06:32:02.603Z,18.60
2022-08-26T06:34:30.815Z,19.04
2022-08-26T06:37:02.524Z,19.13
2022-08-26T06:39:30.605Z,19.25
2022-08-26T06:41:59.418Z,19.35
2022-08-26T06:44:27.335Z,19.66
2022-08-26T06:46:54.795Z,19.69
2022-08-26T06:49:26.968Z,19.91
2022-08-26T06:51:58.429Z,20.09
2022-08-26T06:54:27.449Z,19.92
2022-08-26T06:56:56.711Z,20.40
2022-08-26T06:59:24.948Z,20.40
2022-08-26T07:01:52.437Z,20.43
2022-08-26T07:04:23.055Z,20.51
2022-08-26T07:06:53.347Z,20.66
2022-08-26T07:09:23.318Z,20.28
2022-08-26T07:11:51.764Z,20.47
2022-08-26T07:14:21.626Z,20.52
2022-08-26T07:16:50.326Z,20.50
2022-08-26T07:19:30.353Z,20.74
2022-08-26T07:22:02.112Z,20.67
2022-08-26T07:24:29.715Z,20.63
2022-08-26T07:27:02.008Z,20.92
2022-08-26T07:29:30.748Z,21.07
2022-08-26T07:31:58.132Z,20.95
2022-08-26T07:34:25.294Z,20.94
2022-08-26T07:36:53.735Z,21.13
2022-08-26T07:39:22.512Z,21.33
2022-08-26T07:41:49.910Z,21.28
2022-08-26T07:44:17.251Z,20.94
2022-08-26T07:46:52.336Z,20.86
2022-08-26T07:49:23.890Z,21.21
2022-08-26T07:51:51.435Z,20.81
2022-08-26T07:54:19.167Z,21.26
2022-08-26T07:56:48.513Z,21.42
2022-08-26T07:59:17.574Z,21.29
2022-08-26T08:01:45.754Z,21.19
2022-08-26T08:04:14.506Z,21.76
2022-08-26T08:06:43.856Z,21.75
2022-08-26T08:09:13.637Z,21.77
2022-08-26T08:11:41.407Z,21.85
2022-08-26T08:14:11.848Z,22.21
2022-08-26T08:16:41.516Z,22.63
2022-08-26T08:19:14.054Z,22.43
2022-08-26T08:21:43.121Z,22.61
2022-08-26T08:24:11.239Z,22.76
2022-08-26T08:26:39.213Z,22.60
2022-08-26T08:29:08.683Z,22.31
2022-08-26T08:31:58.036Z,22.20
2022-08-26T08:34:28.538Z,22.54
2022-08-26T08:36:57.126Z,22.45
2022-08-26T08:39:25.512Z,22.73
2022-08-26T08:42:11.101Z,22.76
2022-08-26T08:44:44.183Z,22.82
2022-08-26T08:47:34.413Z,22.76
2022-08-26T08:50:26.122Z,22.65
2022-08-26T08:53:12.023Z,23.02
2022-08-26T08:55:48.096Z,23.05
2022-08-26T08:58:19.732Z,22.91
2022-08-26T09:00:54.177Z,22.66
2022-08-26T09:03:31.012Z,22.96
2022-08-26T09:06:00.243Z,22.76
2022-08-26T09:08:35.688Z,22.59
2022-08-26T09:11:04.305Z,22.48
2022-08-26T09:13:31.760Z,22.37
2022-08-26T09:16:15.612Z,22.51
2022-08-26T09:19:03.843Z,22.64
2022-08-26T09:21:31.980Z,22.52
2022-08-26T09:23:59.871Z,22.54
2022-08-26T09:26:52.482Z,22.37
2022-08-26T09:29:29.300Z,22.59
2022-08-26T09:32:24.258Z,22.70
2022-08-26T09:35:02.648Z,22.70
2022-08-26T09:40:19.268Z,22.68
2022-08-26T09:42:48.192Z,22.74
2022-08-26T09:45:15.455Z,23.01
2022-08-26T09:47:47.076Z,23.22
2022-08-26T09:50:36.031Z,23.36
2022-08-26T09:53:12.837Z,23.10
2022-08-26T09:55:48.658Z,23.17
2022-08-26T09:58:33.154Z,23.43
2022-08-26T10:01:03.170Z,23.15
2022-08-26T10:03:35.207Z,23.54
2022-08-26T10:06:20.917Z,23.96
2022-08-26T10:08:55.442Z,24.06
2022-08-26T10:11:53.385Z,24.37
2022-08-26T10:14:37.083Z,24.47
2022-08-26T10:17:22.346Z,24.78
2022-08-26T10:19:59.429Z,24.74
2022-08-26T10:22:43.275Z,24.99
2022-08-26T10:25:20.155Z,25.06
2022-08-26T10:27:57.738Z,24.95
2022-08-26T10:30:34.746Z,25.15
2022-08-26T10:33:07.618Z,25.08
2022-08-26T10:35:40.155Z,25.00
2022-08-26T10:38:16.842Z,25.29
2022-08-26T10:40:58.528Z,25.36
2022-08-26T10:43:29.614Z,25.22
2022-08-26T10:46:04.958Z,25.33
2022-08-26T10:48:49.345Z,25.44
2022-08-26T10:51:26.698Z,25.33
2022-08-26T10:54:01.453Z,25.52
2022-08-26T10:56:42.553Z,25.72
2022-08-26T10:59:46.787Z,25.83
2022-08-26T11:02:26.795Z,25.69
2022-08-26T11:05:03.785Z,25.88
2022-08-26T11:07:35.291Z,26.20
2022-08-26T11:10:25.551Z,26.26
2022-08-26T11:13:03.763Z,26.04
2022-08-26T11:15:31.380Z,26.45
2022-08-26T11:18:07.678Z,26.35
2022-08-26T11:20:45.512Z,26.28
2022-08-26T11:23:13.155Z,26.19
2022-08-26T11:26:05.272Z,26.39
2022-08-26T11:28:38.530Z,26.69
2022-08-26T11:31:10.569Z,26.73
2022-08-26T11:33:47.396Z,26.83
2022-08-26T11:36:34.818Z,26.87
2022-08-26T11:39:04.043Z,26.96
2022-08-26T11:41:33.476Z,27.19
2022-08-26T11:44:02.253Z,27.21
2022-08-26T11:46:31.354Z,27.01
2022-08-26T11:49:07.195Z,27.16
2022-08-26T11:51:40.380Z,27.35
2022-08-26T11:54:11.500Z,27.18
2022-08-26T11:56:40.492Z,27.25
2022-08-26T11:59:15.385Z,27.30
2022-08-26T12:01:45.877Z,27.27
2022-08-26T12:04:31.164Z,27.27
2022-08-26T12:07:00.559Z,27.05
2022-08-26T12:09:34.459Z,27.56
2022-08-26T12:12:21.711Z,27.85
2022-08-26T12:14:48.842Z,28.01
2022-08-26T12:17:27.269Z,27.64
2022-08-26T12:19:54.432Z,27.73
2022-08-26T12:22:27.280Z,27.89
2022-08-26T12:24:56.214Z,27.96
2022-08-26T12:27:27.184Z,28.00
2022-08-26T12:30:04.361Z,27.86
2022-08-26T12:32:35.197Z,28.33
2022-08-26T12:37:41.116Z,28.18
2022-08-26T12:40:35.324Z,28.13
2022-08-26T12:43:04.797Z,28.21
2022-08-26T12:45:44.030Z,28.50
2022-08-26T12:48:20.614Z,28.58
2022-08-26T12:50:52.266Z,28.56
2022-08-26T12:53:28.638Z,28.73
2022-08-26T12:55:58.815Z,28.60
2022-08-26T12:58:31.545Z,28.58
2022-08-26T13:01:04.786Z,29.03
2022-08-26T13:03:34.643Z,29.07
2022-08-26T13:06:20.739Z,28.90
2022-08-26T13:08:53.034Z,28.77
2022-08-26T13:11:22.293Z,28.90
2022-08-26T13:13:53.488Z,28.85
2022-08-26T13:16:22.218Z,28.91
2022-08-26T13:18:52.976Z,28.85
2022-08-26T13:21:24.174Z,29.16
2022-08-26T13:23:52.059Z,29.46
2022-08-26T13:26:19.267Z,29.23
2022-08-26T13:28:53.273Z,29.15
2022-08-26T13:31:31.294Z,29.36
2022-08-26T13:33:58.971Z,29.74
2022-08-26T13:36:35.479Z,29.28
2022-08-26T13:39:05.385Z,29.65
2022-08-26T13:41:33.638Z,29.44
2022-08-26T13:44:00.793Z,29.53
2022-08-26T13:46:28.912Z,30.14
2022-08-26T13:48:57.755Z,29.86
2022-08-26T13:51:26.732Z,30.04
2022-08-26T13:53:54.638Z,29.29
2022-08-26T13:56:46.930Z,29.73
2022-08-26T13:59:13.978Z,29.81
2022-08-26T14:01:41.133Z,29.76
2022-08-26T14:04:08.583Z,29.76
2022-08-26T14:06:35.769Z,29.46
2022-08-26T14:09:03.115Z,29.65
2022-08-26T14:11:41.179Z,29.70
2022-08-26T14:14:17.316Z,29.95
2022-08-26T14:16:51.268Z,29.91
2022-08-26T14:19:26.459Z,30.19
2022-08-26T14:21:53.698Z,29.66
2022-08-26T14:24:20.707Z,30.06
2022-08-26T14:26:48.472Z,30.34
2022-08-26T14:29:16.780Z,29.91
2022-08-26T14:31:44.626Z,29.55
2022-08-26T14:34:13.693Z,29.03
2022-08-26T14:36:40.925Z,28.72
2022-08-26T14:39:11.748Z,28.56
2022-08-26T14:41:45.835Z,28.82
2022-08-26T14:44:22.298Z,28.88
2022-08-26T14:46:52.437Z,29.07
2022-08-26T14:49:21.375Z,29.21
2022-08-26T14:51:48.687Z,29.17
2022-08-26T14:54:17.309Z,28.84
2022-08-26T14:56:51.149Z,29.09
2022-08-26T14:59:23.253Z,29.23
2022-08-26T15:01:50.764Z,29.01
2022-08-26T15:04:18.774Z,29.16
2022-08-26T15:06:46.283Z,29.32
2022-08-26T15:09:14.850Z,29.37
2022-08-26T15:11:42.128Z,29.22
2022-08-26T15:14:19.697Z,29.17
2022-08-26T15:16:48.867Z,29.02
2022-08-26T15:19:16.770Z,29.05
2022-08-26T15:21:45.523Z,29.28
2022-08-26T15:24:14.613Z,29.44
2022-08-26T15:26:43.253Z,29.25
2022-08-26T15:29:10.407Z,28.63
2022-08-26T15:31:37.508Z,28.73
2022-08-26T15:34:08.031Z,28.84
2022-08-26T15:36:37.699Z,28.71
2022-08-26T15:39:06.815Z,28.86
2022-08-26T15:41:35.018Z,28.51
2022-08-26T15:44:03.710Z,28.29
2022-08-26T15:46:31.633Z,28.36
2022-08-26T15:48:59.025Z,28.38
2022-08-26T15:51:29.284Z,28.19
2022-08-26T15:53:57.117Z,28.68
2022-08-26T15:56:29.084Z,28.08
2022-08-26T15:58:56.762Z,27.94
2022-08-26T16:01:27.320Z,28.04
2022-08-26T16:03:56.579Z,27.52
2022-08-26T16:06:31.295Z,27.54
2022-08-26T16:08:58.468Z,27.63
2022-08-26T16:11:25.949Z,27.24
2022-08-26T16:13:53.273Z,27.09
2022-08-26T16:16:21.372Z,26.95
2022-08-26T16:18:49.540Z,27.41
2022-08-26T16:21:19.429Z,27.52
2022-08-26T16:23:47.451Z,27.86
2022-08-26T16:26:18.877Z,27.61
2022-08-26T16:28:47.342Z,27.72
2022-08-26T16:31:15.646Z,27.75
2022-08-26T16:33:43.411Z,26.72
2022-08-26T16:36:11.239Z,26.73
2022-08-26T16:38:41.237Z,26.64
2022-08-26T16:41:08.669Z,26.89
2022-08-26T16:43:35.829Z,26.96
2022-08-26T16:46:05.981Z,27.22
2022-08-26T16:48:33.527Z,27.13
2022-08-26T16:51:00.673Z,26.97
2022-08-26T16:53:27.793Z,26.65
2022-08-26T16:55:55.313Z,26.82
2022-08-26T16:58:22.561Z,26.84
2022-08-26T17:00:49.694Z,26.26
2022-08-26T17:03:17.049Z,25.56
2022-08-26T17:05:44.477Z,25.63
2022-08-26T17:08:11.996Z,25.40
2022-08-26T17:10:39.484Z,25.22
2022-08-26T17:13:06.594Z,24.95
2022-08-26T17:15:33.730Z,24.69
2022-08-26T17:18:00.819Z,24.76
2022-08-26T17:20:27.911Z,24.66
2022-08-26T17:22:55.806Z,24.66
2022-08-26T17:25:29.239Z,24.47
2022-08-26T17:30:29.719Z,24.47
2022-08-26T17:32:58.247Z,24.36
2022-08-26T17:35:27.727Z,24.01
2022-08-26T17:37:56.097Z,24.43
2022-08-26T17:40:25.642Z,24.34
2022-08-26T17:42:53.026Z,24.38
2022-08-26T17:47:54.604Z,24.14
2022-08-26T17:50:22.246Z,24.35
2022-08-26T17:52:49.720Z,24.04
2022-08-26T17:55:18.533Z,24.19
2022-08-26T17:57:53.290Z,23.98
2022-08-26T18:00:26.246Z,24.05
2022-08-26T18:02:56.431Z,24.06
2022-08-26T18:05:23.656Z,23.93
2022-08-26T18:07:51.394Z,23.75
2022-08-26T18:10:20.386Z,23.86
2022-08-26T18:12:48.304Z,23.72
2022-08-26T18:15:16.930Z,23.86
2022-08-26T18:17:44.118Z,23.68
2022-08-26T18:20:17.433Z,23.69
2022-08-26T18:22:46.631Z,23.69
2022-08-26T18:25:14.707Z,23.65
2022-08-26T18:27:41.827Z,23.48
2022-08-26T18:30:16.411Z,23.55
2022-08-26T18:32:44.307Z,23.50
2022-08-26T18:35:12.389Z,23.30
2022-08-26T18:37:39.973Z,23.10
2022-08-26T18:40:09.463Z,23.25
2022-08-26T18:42:36.865Z,22.91
2022-08-26T18:45:06.111Z,23.16
2022-08-26T18:47:34.405Z,23.35
2022-08-26T18:50:04.478Z,23.27
2022-08-26T18:52:32.179Z,23.26
2022-08-26T18:54:59.466Z,23.38
2022-08-26T18:57:26.573Z,23.32
2022-08-26T18:59:53.739Z,23.25
2022-08-26T19:02:21.136Z,23.20
2022-08-26T19:04:48.314Z,23.09
2022-08-26T19:07:15.532Z,22.68
2022-08-26T19:09:42.694Z,22.94
2022-08-26T19:12:09.848Z,22.75
2022-08-26T19:14:36.989Z,22.73
2022-08-26T19:17:04.890Z,22.66
2022-08-26T19:19:32.313Z,22.73
2022-08-26T19:21:59.582Z,22.65
2022-08-26T19:24:28.331Z,22.67
2022-08-26T19:26:58.726Z,22.54
2022-08-26T19:29:28.801Z,22.62
2022-08-26T19:31:56.510Z,22.41
2022-08-26T19:34:24.097Z,22.31
2022-08-26T19:36:53.119Z,22.31
2022-08-26T19:39:21.202Z,22.32
2022-08-26T19:41:48.912Z,22.51
2022-08-26T19:44:38.211Z,22.55
2022-08-26T19:47:07.551Z,22.49
2022-08-26T19:49:35.130Z,22.55
2022-08-26T19:52:03.026Z,22.48
2022-08-26T19:54:30.455Z,22.66
2022-08-26T19:56:57.499Z,22.64
2022-08-26T19:59:24.631Z,22.35
2022-08-26T20:02:01.187Z,22.38
2022-08-26T20:04:32.341Z,22.30
2022-08-26T20:07:01.058Z,22.45
2022-08-26T20:09:29.662Z,22.02
2022-08-26T20:11:57.365Z,22.33
2022-08-26T20:14:26.765Z,22.51
2022-08-26T20:16:54.074Z,22.42
2022-08-26T20:19:40.879Z,22.46
2022-08-26T20:22:08.469Z,22.42
2022-08-26T20:24:35.609Z,22.31
2022-08-26T20:27:07.698Z,22.38
2022-08-26T20:29:36.716Z,21.93
2022-08-26T20:32:05.989Z,22.20
2022-08-26T20:34:34.524Z,22.24
2022-08-26T20:37:02.354Z,22.23
2022-08-26T20:39:29.769Z,22.18
2022-08-26T20:41:57.475Z,22.16
2022-08-26T20:44:25.562Z,22.00
2022-08-26T20:46:53.070Z,21.99
2022-08-26T20:49:20.179Z,21.87
2022-08-26T20:51:50.697Z,21.82
2022-08-26T20:54:19.404Z,21.75
2022-08-26T20:56:46.752Z,21.67
2022-08-26T20:59:14.724Z,21.85
2022-08-26T21:01:42.717Z,21.89
2022-08-26T21:04:15.794Z,21.79
2022-08-26T21:06:49.413Z,21.87
2022-08-26T21:09:24.878Z,21.62
2022-08-26T21:11:52.952Z,21.94
2022-08-26T21:14:23.141Z,21.77
2022-08-26T21:16:53.273Z,21.93
2022-08-26T21:19:20.504Z,21.76
2022-08-26T21:21:49.263Z,21.75
2022-08-26T21:24:16.875Z,21.85
2022-08-26T21:26:44.380Z,21.45
2022-08-26T21:29:13.480Z,21.98
2022-08-26T21:31:46.013Z,21.91
2022-08-26T21:34:16.930Z,21.99
2022-08-26T21:36:48.476Z,21.96
2022-08-26T21:39:16.701Z,21.68
2022-08-26T21:41:44.566Z,21.67
2022-08-26T21:44:13.852Z,21.62
2022-08-26T21:46:41.425Z,21.76
2022-08-26T21:49:11.571Z,21.74
2022-08-26T21:51:42.734Z,21.77
2022-08-26T21:54:11.319Z,21.74
2022-08-26T21:56:44.001Z,21.64
2022-08-26T21:59:12.189Z,21.67
2022-08-26T22:01:39.538Z,21.75
2022-08-26T22:04:08.688Z,21.42
2022-08-26T22:06:44.118Z,21.69
2022-08-26T22:09:12.526Z,21.64
2022-08-26T22:11:39.773Z,21.25
2022-08-26T22:14:06.908Z,21.62
2022-08-26T22:16:34.129Z,21.69
2022-08-26T22:19:01.279Z,21.62
2022-08-26T22:21:28.438Z,21.45
2022-08-26T22:23:58.540Z,21.67
2022-08-26T22:26:29.471Z,21.59
2022-08-26T22:28:59.025Z,21.70
2022-08-26T22:31:38.035Z,21.49
2022-08-26T22:34:09.657Z,21.10
2022-08-26T22:36:43.693Z,21.53
2022-08-26T22:39:13.338Z,21.49
2022-08-26T22:41:42.879Z,21.43
2022-08-26T22:44:11.803Z,20.84
2022-08-26T22:46:39.806Z,21.29
2022-08-26T22:49:08.753Z,21.43
2022-08-26T22:51:35.843Z,21.51
2022-08-26T22:54:03.547Z,21.44
2022-08-26T22:56:30.577Z,21.43
2022-08-26T22:58:57.618Z,21.03
2022-08-26T23:01:24.752Z,21.38
2022-08-26T23:03:51.889Z,21.19
2022-08-26T23:06:19.063Z,20.95
2022-08-26T23:08:46.993Z,21.09
2022-08-26T23:11:14.879Z,21.17
2022-08-26T23:13:42.341Z,20.97
2022-08-26T23:16:11.572Z,21.11
2022-08-26T23:18:40.631Z,20.97
2022-08-26T23:21:08.917Z,21.03
2022-08-26T23:23:37.319Z,21.04
2022-08-26T23:26:06.325Z,21.17
2022-08-26T23:28:35.189Z,20.97
2022-08-26T23:31:02.222Z,20.98
2022-08-26T23:33:49.273Z,20.82
2022-08-26T23:36:18.348Z,20.94
2022-08-26T23:38:53.074Z,20.81
2022-08-26T23:41:22.644Z,20.94
2022-08-26T23:43:51.461Z,21.01
2022-08-26T23:46:19.504Z,20.77
2022-08-26T23:48:47.458Z,20.85
2022-08-26T23:51:33.474Z,20.85
2022-08-26T23:54:00.743Z,20.83
2022-08-26T23:56:29.045Z,20.88
2022-08-26T23:58:56.533Z,20.97
